Time;durP1;ratioP1;P1;durP2;ratioP2;P2;SDS_P1;SDS_P2;PMS_P1;PMS_P2;Temp;Humidity;BMP_temperature;BMP_pressure;BME280_temperature;BME280_humidity;BME280_pressure;Samples;Min_cycle;Max_cycle;Signal;HPM_P1;HPM_P2
2023/10/29 00:02:47;;;;;;;2.90;0.82;;;;;;;;;;10345251;28;20073;-73
2023/10/29 00:07:51;;;;;;;1.08;0.70;;;;;;;;;;10336075;28;20065;-71
2023/10/29 00:12:53;;;;;;;3.05;0.75;;;;;;;;;;10343006;28;20045;-73
2023/10/29 00:17:56;;;;;;;0.75;0.50;;;;;;;;;;10340656;28;20044;-74
2023/10/29 00:23:00;;;;;;;1.13;0.57;;;;;;;;;;10348560;28;20140;-71
2023/10/29 00:28:03;;;;;;;0.10;0.10;;;;;;;;;;10339241;28;20045;-71
2023/10/29 00:33:06;;;;;;;1.92;0.65;;;;;;;;;;10341635;28;20131;-71
2023/10/29 00:38:10;;;;;;;1.67;0.60;;;;;;;;;;10343158;28;20053;-72
2023/10/29 00:43:13;;;;;;;1.40;0.68;;;;;;;;;;10339806;28;20487;-72
2023/10/29 00:48:16;;;;;;;2.73;1.03;;;;;;;;;;10340212;28;20129;-70
2023/10/29 00:53:20;;;;;;;3.03;1.00;;;;;;;;;;10347170;28;20061;-72
2023/10/29 00:58:22;;;;;;;;;;;;;;;;;;10344990;28;20056;-71
2023/10/29 01:03:25;;;;;;;1.67;0.70;;;;;;;;;;10344495;28;19929;-70
2023/10/29 01:08:29;;;;;;;0.47;0.45;;;;;;;;;;10342212;28;20042;-70
2023/10/29 01:13:32;;;;;;;0.40;0.40;;;;;;;;;;10347432;28;20049;-70
2023/10/29 01:18:35;;;;;;;1.92;0.80;;;;;;;;;;10352188;28;20494;-70
2023/10/29 01:23:39;;;;;;;0.45;0.30;;;;;;;;;;10344472;28;20076;-71
2023/10/29 01:28:41;;;;;;;;;;;;;;;;;;10353150;28;20044;-70
2023/10/29 01:33:44;;;;;;;1.00;0.57;;;;;;;;;;10349365;28;20030;-71
2023/10/29 01:38:48;;;;;;;1.55;0.68;;;;;;;;;;10352089;28;20073;-71
2023/10/29 01:43:51;;;;;;;1.67;1.02;;;;;;;;;;10352559;28;20686;-70
2023/10/29 01:48:54;;;;;;;1.95;0.90;;;;;;;;;;10351153;28;20128;-71
2023/10/29 01:53:58;;;;;;;0.65;0.57;;;;;;;;;;10350570;28;20052;-71
2023/10/29 01:59:01;;;;;;;1.05;0.90;;;;;;;;;;10348290;28;20086;-71
2023/10/29 02:04:04;;;;;;;1.30;0.70;;;;;;;;;;10337211;28;20082;-71
2023/10/29 02:09:09;;;;;;;0.77;0.57;;;;;;;;;;10340427;28;20042;-70
2023/10/29 02:14:11;;;;;;;0.30;0.30;;;;;;;;;;10341667;28;20126;-70
2023/10/29 02:19:14;;;;;;;0.43;0.43;;;;;;;;;;10351145;28;20038;-71
2023/10/29 02:24:18;;;;;;;1.90;0.88;;;;;;;;;;10349746;28;20473;-70
2023/10/29 02:29:20;;;;;;;1.17;0.73;;;;;;;;;;10352580;28;20037;-72
2023/10/29 02:34:23;;;;;;;3.38;0.90;;;;;;;;;;10352329;28;20160;-71
2023/10/29 02:39:27;;;;;;;1.60;0.73;;;;;;;;;;10349912;28;20172;-71
2023/10/29 02:44:29;;;;;;;0.73;0.70;;;;;;;;;;10350675;28;20189;-72
2023/10/29 02:49:32;;;;;;;4.25;1.00;;;;;;;;;;10349724;28;20069;-70
2023/10/29 02:54:36;;;;;;;1.17;0.60;;;;;;;;;;10342011;28;20074;-70
2023/10/29 02:59:38;;;;;;;2.08;0.80;;;;;;;;;;10342566;28;20038;-71
2023/10/29 03:04:41;;;;;;;1.15;0.60;;;;;;;;;;10340013;28;20053;-71
2023/10/29 03:09:45;;;;;;;1.38;1.27;;;;;;;;;;10351855;28;20420;-70
2023/10/29 03:14:47;;;;;;;0.30;0.30;;;;;;;;;;10344128;28;20346;-71
2023/10/29 03:19:50;;;;;;;5.57;1.02;;;;;;;;;;10345367;28;20041;-71
2023/10/29 03:24:54;;;;;;;2.00;0.95;;;;;;;;;;10339415;28;20048;-71
2023/10/29 03:29:57;;;;;;;1.45;0.73;;;;;;;;;;10343367;28;20044;-71
2023/10/29 03:35:00;;;;;;;0.30;0.28;;;;;;;;;;10348003;28;20052;-71
2023/10/29 03:40:05;;;;;;;1.38;0.50;;;;;;;;;;10335163;28;20038;-71
2023/10/29 03:45:08;;;;;;;0.90;0.63;;;;;;;;;;10340165;28;20049;-71
2023/10/29 03:50:10;;;;;;;0.75;0.75;;;;;;;;;;10341066;28;20664;-70
2023/10/29 03:55:14;;;;;;;1.55;0.70;;;;;;;;;;10342597;28;20053;-71
2023/10/29 04:00:17;;;;;;;1.75;0.75;;;;;;;;;;10343688;28;20113;-72
2023/10/29 04:05:20;;;;;;;0.75;0.40;;;;;;;;;;10340587;28;20417;-71
2023/10/29 04:10:24;;;;;;;0.50;0.40;;;;;;;;;;10339742;28;20136;-72
2023/10/29 04:15:26;;;;;;;1.05;0.68;;;;;;;;;;10342904;28;20053;-71
2023/10/29 04:20:29;;;;;;;1.42;0.52;;;;;;;;;;10340047;28;20491;-70
2023/10/29 04:25:33;;;;;;;2.28;0.80;;;;;;;;;;10345988;28;20045;-70
2023/10/29 04:30:36;;;;;;;1.70;1.15;;;;;;;;;;10340263;28;20066;-71
2023/10/29 04:35:39;;;;;;;1.10;0.70;;;;;;;;;;10339599;28;20041;-70
2023/10/29 04:40:44;;;;;;;2.13;1.02;;;;;;;;;;10340962;28;20507;-72
2023/10/29 04:45:46;;;;;;;0.68;0.68;;;;;;;;;;10341210;28;20132;-72
2023/10/29 04:50:49;;;;;;;1.27;0.45;;;;;;;;;;10346981;28;20054;-73
2023/10/29 04:55:53;;;;;;;0.95;0.60;;;;;;;;;;10344833;28;20053;-73
2023/10/29 05:00:56;;;;;;;0.93;0.55;;;;;;;;;;10351232;28;20038;-72
2023/10/29 05:05:59;;;;;;;0.40;0.40;;;;;;;;;;10344697;28;20053;-71
2023/10/29 05:11:03;;;;;;;0.90;0.63;;;;;;;;;;10350308;28;20033;-73
2023/10/29 05:16:06;;;;;;;0.85;0.60;;;;;;;;;;10354255;28;20133;-71
2023/10/29 05:21:08;;;;;;;0.57;0.40;;;;;;;;;;10347250;28;20068;-72
2023/10/29 05:26:12;;;;;;;1.92;0.70;;;;;;;;;;10348178;28;20417;-70
2023/10/29 05:31:15;;;;;;;0.60;0.50;;;;;;;;;;10350320;28;20131;-72
2023/10/29 05:36:18;;;;;;;0.57;0.57;;;;;;;;;;10349785;28;20147;-71
2023/10/29 05:41:22;;;;;;;1.13;0.50;;;;;;;;;;10351185;28;20056;-71
2023/10/29 05:46:25;;;;;;;1.42;0.82;;;;;;;;;;10346068;28;20129;-71
2023/10/29 05:51:27;;;;;;;0.60;0.43;;;;;;;;;;10349399;28;20041;-70
2023/10/29 05:56:31;;;;;;;1.33;0.50;;;;;;;;;;10349183;28;20500;-70
2023/10/29 06:01:34;;;;;;;0.77;0.70;;;;;;;;;;10354869;28;20045;-71
2023/10/29 06:06:36;;;;;;;0.68;0.43;;;;;;;;;;10346555;28;20057;-70
2023/10/29 06:11:42;;;;;;;0.85;0.70;;;;;;;;;;10342194;28;20349;-71
2023/10/29 06:16:44;;;;;;;1.25;0.75;;;;;;;;;;10350156;28;20395;-70
2023/10/29 06:21:47;;;;;;;0.47;0.47;;;;;;;;;;10347609;28;20041;-70
2023/10/29 06:26:51;;;;;;;0.43;0.40;;;;;;;;;;10348689;28;20053;-72
2023/10/29 06:31:54;;;;;;;0.77;0.60;;;;;;;;;;10346174;28;20426;-71
2023/10/29 06:36:57;;;;;;;1.00;0.77;;;;;;;;;;10340764;28;20056;-71
2023/10/29 06:42:01;;;;;;;0.70;0.70;;;;;;;;;;10356587;28;20034;-71
2023/10/29 06:47:04;;;;;;;0.85;0.63;;;;;;;;;;10353879;28;20096;-72
2023/10/29 06:52:07;;;;;;;0.98;0.63;;;;;;;;;;10347157;28;20038;-70
2023/10/29 06:57:11;;;;;;;0.80;0.80;;;;;;;;;;10358961;28;20041;-72
2023/10/29 07:02:14;;;;;;;1.20;0.80;;;;;;;;;;10352170;28;20030;-72
2023/10/29 07:07:17;;;;;;;1.95;0.90;;;;;;;;;;10346019;28;20046;-71
2023/10/29 07:12:21;;;;;;;1.65;1.30;;;;;;;;;;10343861;28;20042;-72
2023/10/29 07:17:24;;;;;;;2.22;1.42;;;;;;;;;;10346050;28;20038;-72
2023/10/29 07:22:27;;;;;;;1.38;1.27;;;;;;;;;;10344549;28;20065;-73
2023/10/29 07:27:31;;;;;;;2.20;1.60;;;;;;;;;;10341161;28;20049;-71
2023/10/29 07:32:33;;;;;;;1.83;1.60;;;;;;;;;;10346578;28;20042;-71
2023/10/29 07:37:36;;;;;;;1.48;1.20;;;;;;;;;;10347412;28;20054;-72
2023/10/29 07:42:40;;;;;;;1.55;1.10;;;;;;;;;;10349172;28;20042;-71
2023/10/29 07:47:42;;;;;;;1.30;0.98;;;;;;;;;;10344269;28;20056;-70
2023/10/29 07:52:45;;;;;;;1.40;1.20;;;;;;;;;;10346142;28;20042;-70
2023/10/29 07:57:49;;;;;;;1.57;1.33;;;;;;;;;;10351730;28;20120;-71
2023/10/29 08:02:52;;;;;;;2.45;1.30;;;;;;;;;;10334581;28;20444;-73
2023/10/29 08:07:55;;;;;;;1.58;1.10;;;;;;;;;;10340857;28;20139;-71
2023/10/29 08:12:59;;;;;;;1.40;1.25;;;;;;;;;;10346275;28;20034;-70
2023/10/29 08:18:02;;;;;;;2.00;1.30;;;;;;;;;;10341674;28;20711;-71
2023/10/29 08:23:04;;;;;;;1.80;1.27;;;;;;;;;;10350804;28;20078;-72
2023/10/29 08:28:09;;;;;;;2.08;1.30;;;;;;;;;;10343924;28;20093;-72
2023/10/29 08:33:11;;;;;;;2.38;1.48;;;;;;;;;;10333828;28;20127;-71
2023/10/29 08:38:14;;;;;;;3.13;1.42;;;;;;;;;;10339907;28;20121;-71
2023/10/29 08:43:18;;;;;;;2.80;1.20;;;;;;;;;;10348398;28;20064;-72
2023/10/29 08:48:20;;;;;;;4.05;1.60;;;;;;;;;;10352770;28;20041;-72
2023/10/29 08:53:23;;;;;;;3.65;1.38;;;;;;;;;;10357035;28;20045;-72
2023/10/29 08:58:27;;;;;;;1.55;1.27;;;;;;;;;;10355174;28;20088;-73
2023/10/29 09:03:30;;;;;;;2.17;1.08;;;;;;;;;;10344186;28;20132;-71
2023/10/29 09:08:33;;;;;;;1.38;1.10;;;;;;;;;;10346321;28;20395;-71
2023/10/29 09:13:37;;;;;;;3.42;1.73;;;;;;;;;;10353312;28;20096;-71
2023/10/29 09:18:40;;;;;;;0.70;0.70;;;;;;;;;;10354767;28;20072;-71
2023/10/29 09:23:43;;;;;;;0.70;0.60;;;;;;;;;;10349178;28;20814;-71
2023/10/29 09:28:45;;;;;;;;;;;;;;;;;;10349364;28;20491;-71
2023/10/29 09:33:49;;;;;;;1.27;1.07;;;;;;;;;;10346230;28;20003;-73
2023/10/29 09:38:52;;;;;;;0.88;0.88;;;;;;;;;;10362723;28;20057;-71
2023/10/29 09:43:54;;;;;;;3.03;1.45;;;;;;;;;;10362946;28;20038;-71
2023/10/29 09:49:00;;;;;;;1.73;1.50;;;;;;;;;;10367479;28;20053;-71
2023/10/29 09:54:03;;;;;;;1.83;1.02;;;;;;;;;;10360996;28;20042;-74
2023/10/29 09:59:07;;;;;;;1.40;1.30;;;;;;;;;;10355610;28;20068;-72
2023/10/29 10:04:11;;;;;;;4.05;1.15;;;;;;;;;;10356643;28;20062;-72
2023/10/29 10:09:14;;;;;;;1.08;0.90;;;;;;;;;;10345296;28;20129;-71
2023/10/29 10:14:26;;;;;;;2.70;1.35;;;;;;;;;;10350876;28;20043;-72
2023/10/29 10:19:30;;;;;;;1.70;1.08;;;;;;;;;;10344403;28;20050;-72
2023/10/29 10:24:36;;;;;;;1.58;1.13;;;;;;;;;;10344259;28;20049;-72
2023/10/29 10:29:39;;;;;;;1.75;0.90;;;;;;;;;;10347980;28;20044;-72
2023/10/29 10:34:51;;;;;;;1.23;1.13;;;;;;;;;;10338505;28;20770;-71
2023/10/29 10:39:54;;;;;;;2.37;1.20;;;;;;;;;;10344824;28;20073;-71
2023/10/29 10:44:58;;;;;;;1.45;1.10;;;;;;;;;;10348413;28;20049;-71
2023/10/29 10:50:03;;;;;;;1.70;1.10;;;;;;;;;;10340247;28;20041;-71
2023/10/29 10:55:06;;;;;;;0.73;0.73;;;;;;;;;;10337653;28;20049;-71
2023/10/29 11:00:23;;;;;;;3.17;0.98;;;;;;;;;;10340550;28;20042;-71
2023/10/29 11:05:30;;;;;;;0.82;0.70;;;;;;;;;;10343962;28;20598;-71
2023/10/29 11:10:33;;;;;;;0.50;0.30;;;;;;;;;;10338486;28;21871;-71
2023/10/29 11:15:45;;;;;;;1.75;0.73;;;;;;;;;;10338420;28;20049;-71
2023/10/29 11:20:56;;;;;;;1.27;0.77;;;;;;;;;;10344173;28;20466;-71
2023/10/29 11:26:20;;;;;;;0.90;0.70;;;;;;;;;;10338355;28;20268;-73
2023/10/29 11:31:25;;;;;;;0.60;0.60;;;;;;;;;;10341142;28;20149;-76
2023/10/29 11:36:33;;;;;;;1.88;0.60;;;;;;;;;;10342315;28;20052;-74
2023/10/29 11:41:36;;;;;;;1.98;0.90;;;;;;;;;;10332371;28;20204;-73
2023/10/29 11:46:53;;;;;;;0.88;0.50;;;;;;;;;;10336298;28;20054;-71
2023/10/29 11:52:01;;;;;;;2.03;1.23;;;;;;;;;;10339141;28;20045;-73
2023/10/29 11:57:05;;;;;;;2.42;1.52;;;;;;;;;;10333376;28;20432;-71
2023/10/29 12:02:08;;;;;;;2.35;1.10;;;;;;;;;;10332089;28;20043;-71
2023/10/29 12:07:23;;;;;;;2.25;1.00;;;;;;;;;;10344081;28;20041;-71
2023/10/29 12:12:25;;;;;;;1.85;0.90;;;;;;;;;;10339363;28;20062;-71
2023/10/29 12:17:28;;;;;;;1.98;1.13;;;;;;;;;;10334002;28;20160;-72
2023/10/29 12:22:32;;;;;;;;;;;;;;;;;;10338473;28;20275;-71
2023/10/29 12:27:42;;;;;;;3.00;1.52;;;;;;;;;;10340748;28;20028;-71
2023/10/29 12:32:45;;;;;;;2.15;1.40;;;;;;;;;;10338048;28;20035;-71
2023/10/29 12:37:52;;;;;;;2.38;1.42;;;;;;;;;;10341778;28;20077;-72
2023/10/29 12:42:57;;;;;;;1.88;1.20;;;;;;;;;;10339200;28;20056;-72
2023/10/29 12:48:09;;;;;;;2.25;1.40;;;;;;;;;;10340552;28;20147;-72
2023/10/29 12:53:12;;;;;;;5.60;1.80;;;;;;;;;;10341269;28;20168;-72
2023/10/29 13:02:52;;;;;;;2.58;1.70;;;;;;;;;;10589276;27;20522;-72
2023/10/29 13:07:57;;;;;;;10.63;4.55;;;;;;;;;;10590811;27;20416;-66
2023/10/29 13:14:39;;;;;;;2.30;1.50;;;;;;;;;;10584011;27;20457;-74
2023/10/29 13:19:42;;;;;;;2.63;1.50;;;;;;;;;;10551889;28;20552;-77
2023/10/29 13:24:45;;;;;;;2.58;1.38;;;;;;;;;;10563189;28;20203;-78
2023/10/29 13:29:50;;;;;;;4.88;1.65;;;;;;;;;;10564338;28;20166;-77
2023/10/29 13:34:54;;;;;;;2.67;1.35;;;;;;;;;;10557448;28;20036;-77
2023/10/29 13:39:56;;;;;;;2.80;1.40;;;;;;;;;;10566668;28;20096;-77
2023/10/29 13:45:01;;;;;;;2.28;1.40;;;;;;;;;;10564429;28;20058;-77
2023/10/29 13:50:05;;;;;;;3.08;1.48;;;;;;;;;;10557363;28;20055;-77
2023/10/29 13:55:08;;;;;;;2.60;1.48;;;;;;;;;;10563897;28;20044;-77
2023/10/29 14:00:13;;;;;;;4.07;1.60;;;;;;;;;;10561765;28;20067;-77
2023/10/29 14:05:15;;;;;;;6.03;1.65;;;;;;;;;;10561741;28;20050;-77
2023/10/29 14:10:19;;;;;;;4.28;1.60;;;;;;;;;;10560653;28;20130;-76
2023/10/29 14:15:23;;;;;;;3.38;1.55;;;;;;;;;;10561081;28;20176;-77
2023/10/29 14:20:26;;;;;;;3.88;1.45;;;;;;;;;;10557632;28;20059;-78
2023/10/29 14:25:28;;;;;;;3.78;1.45;;;;;;;;;;10520363;28;21798;-78
2023/10/29 14:30:33;;;;;;;4.90;2.08;;;;;;;;;;10528304;28;20320;-77
2023/10/29 14:35:36;;;;;;;5.25;1.50;;;;;;;;;;10527483;28;20063;-76
2023/10/29 14:40:39;;;;;;;2.92;1.42;;;;;;;;;;10532486;28;20036;-77
2023/10/29 14:45:45;;;;;;;2.38;1.30;;;;;;;;;;10532067;28;20037;-77
2023/10/29 14:50:48;;;;;;;4.47;1.52;;;;;;;;;;10545120;27;20539;-76
2023/10/29 14:55:51;;;;;;;3.10;2.00;;;;;;;;;;10527142;28;20100;-77
2023/10/29 15:00:55;;;;;;;6.77;2.70;;;;;;;;;;10527814;28;20334;-77
2023/10/29 15:05:58;;;;;;;5.65;2.65;;;;;;;;;;10523931;28;20083;-77
2023/10/29 15:11:01;;;;;;;5.10;2.88;;;;;;;;;;10530932;28;20044;-78
2023/10/29 15:16:06;;;;;;;6.47;2.60;;;;;;;;;;10526270;28;20121;-78
2023/10/29 15:21:09;;;;;;;4.55;1.95;;;;;;;;;;10521075;28;20560;-77
2023/10/29 15:26:16;;;;;;;4.07;1.83;;;;;;;;;;10525741;28;20082;-77
2023/10/29 15:31:20;;;;;;;3.92;1.80;;;;;;;;;;10523134;28;20421;-78
2023/10/29 15:36:22;;;;;;;3.50;1.42;;;;;;;;;;10524334;28;20089;-77
2023/10/29 15:41:26;;;;;;;2.88;1.83;;;;;;;;;;10531328;28;20036;-77
2023/10/29 15:46:30;;;;;;;2.38;1.45;;;;;;;;;;10522063;28;20123;-77
2023/10/29 15:51:33;;;;;;;2.70;1.70;;;;;;;;;;10533225;28;20102;-77
2023/10/29 15:56:36;;;;;;;3.67;1.50;;;;;;;;;;10528908;28;20059;-77
2023/10/29 16:01:43;;;;;;;3.20;1.88;;;;;;;;;;10528279;28;20077;-77
2023/10/29 16:06:45;;;;;;;3.72;2.33;;;;;;;;;;10518604;28;20702;-78
2023/10/29 16:11:48;;;;;;;4.93;2.00;;;;;;;;;;10515473;28;20037;-77
2023/10/29 16:16:52;;;;;;;3.33;2.08;;;;;;;;;;10522110;28;20052;-77
2023/10/29 16:21:54;;;;;;;6.20;2.92;;;;;;;;;;10524517;28;20048;-77
2023/10/29 16:26:57;;;;;;;7.10;3.10;;;;;;;;;;10528026;28;20273;-77
2023/10/29 16:32:04;;;;;;;5.97;2.88;;;;;;;;;;10526578;28;20043;-76
2023/10/29 16:37:07;;;;;;;7.40;2.85;;;;;;;;;;10523479;28;20044;-77
2023/10/29 16:42:09;;;;;;;13.02;4.55;;;;;;;;;;10525816;28;20044;-78
2023/10/29 16:47:14;;;;;;;8.43;3.60;;;;;;;;;;10522716;28;20246;-77
2023/10/29 16:52:16;;;;;;;6.30;2.92;;;;;;;;;;10531913;28;20031;-77
2023/10/29 16:57:19;;;;;;;10.57;3.50;;;;;;;;;;10539096;28;20346;-77
2023/10/29 17:02:48;;;;;;;6.18;2.42;;;;;;;;;;10515057;28;20064;-78
2023/10/29 17:07:52;;;;;;;6.53;2.25;;;;;;;;;;10525820;28;20055;-78
2023/10/29 17:12:55;;;;;;;3.78;1.58;;;;;;;;;;10529062;28;20047;-78
2023/10/29 17:17:58;;;;;;;3.93;1.63;;;;;;;;;;10529549;28;20044;-78
2023/10/29 17:23:02;;;;;;;4.20;1.73;;;;;;;;;;10516179;28;20436;-78
2023/10/29 17:28:05;;;;;;;4.82;1.80;;;;;;;;;;10523195;28;20151;-79
2023/10/29 17:33:07;;;;;;;6.03;1.67;;;;;;;;;;10519680;28;20123;-78
2023/10/29 17:38:12;;;;;;;3.53;1.50;;;;;;;;;;10528135;28;20139;-77
2023/10/29 17:43:18;;;;;;;2.65;1.33;;;;;;;;;;10529024;28;20042;-77
2023/10/29 17:48:23;;;;;;;4.03;1.50;;;;;;;;;;10525753;28;20135;-77
2023/10/29 17:53:28;;;;;;;3.70;1.77;;;;;;;;;;10528647;28;20070;-76
2023/10/29 17:58:43;;;;;;;4.40;1.80;;;;;;;;;;10532661;28;20493;-77
2023/10/29 18:03:53;;;;;;;3.00;1.50;;;;;;;;;;10542405;28;20036;-76
2023/10/29 18:08:58;;;;;;;3.92;1.50;;;;;;;;;;10532600;28;20059;-79
2023/10/29 18:14:01;;;;;;;3.20;1.35;;;;;;;;;;10535062;28;20073;-79
2023/10/29 18:19:04;;;;;;;3.05;1.40;;;;;;;;;;10532118;28;20492;-78
2023/10/29 18:24:08;;;;;;;4.47;1.70;;;;;;;;;;10511488;28;20051;-78
2023/10/29 18:29:11;;;;;;;5.60;2.17;;;;;;;;;;10529585;28;20040;-76
2023/10/29 18:34:14;;;;;;;2.33;1.20;;;;;;;;;;10512353;28;20055;-76
2023/10/29 18:39:18;;;;;;;1.20;0.80;;;;;;;;;;10531032;28;20044;-77
2023/10/29 18:44:23;;;;;;;8.07;3.80;;;;;;;;;;10533258;28;20139;-79
2023/10/29 18:49:29;;;;;;;2.78;1.48;;;;;;;;;;10521059;28;20438;-78
2023/10/29 18:54:33;;;;;;;4.82;2.17;;;;;;;;;;10531145;28;20464;-78
2023/10/29 18:59:36;;;;;;;2.55;1.50;;;;;;;;;;10533074;28;20083;-80
2023/10/29 19:04:39;;;;;;;4.03;1.90;;;;;;;;;;10531077;28;20040;-78
2023/10/29 19:09:43;;;;;;;4.22;1.98;;;;;;;;;;10534340;28;20486;-77
2023/10/29 19:14:46;;;;;;;5.43;2.10;;;;;;;;;;10531052;28;20042;-78
2023/10/29 19:19:49;;;;;;;5.05;2.10;;;;;;;;;;10528660;28;20123;-78
2023/10/29 19:24:53;;;;;;;5.55;2.45;;;;;;;;;;10528473;28;20135;-77
2023/10/29 19:29:56;;;;;;;6.00;2.50;;;;;;;;;;10533839;28;20131;-78
2023/10/29 19:35:00;;;;;;;6.97;2.40;;;;;;;;;;10536913;28;20075;-77
2023/10/29 19:40:07;;;;;;;5.05;2.25;;;;;;;;;;10509442;28;20044;-76
2023/10/29 19:45:10;;;;;;;8.88;3.67;;;;;;;;;;10531414;28;20397;-78
2023/10/29 19:50:13;;;;;;;6.40;2.33;;;;;;;;;;10526302;28;20123;-77
2023/10/29 19:55:20;;;;;;;8.07;2.28;;;;;;;;;;10536251;28;20290;-77
2023/10/29 20:00:23;;;;;;;7.07;2.65;;;;;;;;;;10532545;28;20044;-77
2023/10/29 20:05:25;;;;;;;5.00;2.30;;;;;;;;;;10528042;28;20024;-77
2023/10/29 20:10:36;;;;;;;4.05;2.10;;;;;;;;;;10528269;28;20032;-78
2023/10/29 20:15:38;;;;;;;4.75;2.22;;;;;;;;;;10524681;28;20119;-79
2023/10/29 20:20:43;;;;;;;4.57;2.22;;;;;;;;;;10509459;28;20078;-77
2023/10/29 20:25:48;;;;;;;4.75;2.65;;;;;;;;;;10524671;28;20093;-78
2023/10/29 20:30:51;;;;;;;4.82;2.45;;;;;;;;;;10526058;28;20040;-77
2023/10/29 20:35:54;;;;;;;4.55;2.53;;;;;;;;;;10505634;28;20072;-78
2023/10/29 20:41:08;;;;;;;7.22;2.58;;;;;;;;;;10522101;28;20122;-77
2023/10/29 20:46:11;;;;;;;4.80;2.25;;;;;;;;;;10522194;28;20119;-77
2023/10/29 20:51:13;;;;;;;7.87;3.00;;;;;;;;;;10518492;28;20036;-77
2023/10/29 20:56:19;;;;;;;5.10;2.47;;;;;;;;;;10521386;28;20500;-77
2023/10/29 21:01:21;;;;;;;6.57;2.70;;;;;;;;;;10523080;28;20036;-76
2023/10/29 21:06:25;;;;;;;4.47;2.20;;;;;;;;;;10524282;28;20028;-77
2023/10/29 21:11:28;;;;;;;;;;;;;;;;;;10519555;28;20424;-78
2023/10/29 21:16:32;;;;;;;7.70;2.75;;;;;;;;;;10524032;28;20058;-77
2023/10/29 21:21:36;;;;;;;6.82;2.13;;;;;;;;;;10519556;28;20055;-77
2023/10/29 21:26:38;;;;;;;6.20;2.20;;;;;;;;;;10527490;28;20050;-76
2023/10/29 21:31:42;;;;;;;3.17;1.73;;;;;;;;;;10521562;28;20048;-79
2023/10/29 21:36:45;;;;;;;4.05;2.17;;;;;;;;;;10521301;28;20426;-76
2023/10/29 21:41:48;;;;;;;1.85;1.52;;;;;;;;;;10531157;28;20054;-77
2023/10/29 21:46:52;;;;;;;3.67;2.00;;;;;;;;;;10529672;28;20036;-76
2023/10/29 21:51:54;;;;;;;;;;;;;;;;;;10530743;28;20051;-76
2023/10/29 21:56:57;;;;;;;5.53;2.28;;;;;;;;;;10529519;28;19920;-76
2023/10/29 22:02:01;;;;;;;6.80;2.42;;;;;;;;;;10532297;28;20117;-76
2023/10/29 22:07:03;;;;;;;5.75;2.10;;;;;;;;;;10529021;28;20048;-77
2023/10/29 22:12:06;;;;;;;4.90;2.20;;;;;;;;;;10526253;28;20481;-76
2023/10/29 22:17:13;;;;;;;6.20;2.80;;;;;;;;;;10525223;28;20047;-76
2023/10/29 22:22:16;;;;;;;7.75;2.88;;;;;;;;;;10528703;28;20786;-76
2023/10/29 22:27:19;;;;;;;7.28;3.03;;;;;;;;;;10526270;28;20089;-76
2023/10/29 22:32:23;;;;;;;5.78;2.63;;;;;;;;;;10529558;28;20055;-76
2023/10/29 22:37:25;;;;;;;;;;;;;;;;;;10528192;28;20082;-75
2023/10/29 22:42:28;;;;;;;6.70;2.83;;;;;;;;;;10528451;28;19934;-76
2023/10/29 22:47:32;;;;;;;4.80;2.45;;;;;;;;;;10522310;28;20036;-75
2023/10/29 22:52:35;;;;;;;10.00;3.00;;;;;;;;;;10522033;28;20052;-76
2023/10/29 22:57:38;;;;;;;12.23;2.90;;;;;;;;;;10527404;28;20149;-75
2023/10/29 23:02:42;;;;;;;6.38;2.70;;;;;;;;;;10520272;28;20070;-74
2023/10/29 23:07:44;;;;;;;7.38;2.47;;;;;;;;;;10530628;28;20123;-75
2023/10/29 23:12:51;;;;;;;5.13;2.30;;;;;;;;;;10523805;28;20127;-76
2023/10/29 23:17:55;;;;;;;5.97;2.50;;;;;;;;;;10525739;28;20189;-75
2023/10/29 23:22:57;;;;;;;6.28;2.42;;;;;;;;;;10527616;28;20658;-74
2023/10/29 23:28:00;;;;;;;6.88;2.63;;;;;;;;;;10520866;28;20052;-75
2023/10/29 23:33:04;;;;;;;5.97;2.70;;;;;;;;;;10526064;28;20155;-75
2023/10/29 23:38:08;;;;;;;4.45;2.30;;;;;;;;;;10527192;28;20064;-75
2023/10/29 23:43:11;;;;;;;;;;;;;;;;;;10519416;28;20127;-74
2023/10/29 23:48:15;;;;;;;7.25;2.63;;;;;;;;;;10524499;28;19947;-75
2023/10/29 23:53:17;;;;;;;;;;;;;;;;;;10527073;28;20094;-75
2023/10/29 23:58:20;;;;;;;5.18;2.50;;;;;;;;;;10525701;28;20707;-75
